createdAt,value
2018-10-21T00:01:25.031Z,6.10
2018-10-21T00:03:56.826Z,6.10
2018-10-21T00:06:28.568Z,6.10
2018-10-21T00:09:00.564Z,6.00
2018-10-21T00:11:32.381Z,6.00
2018-10-21T00:14:04.177Z,5.90
2018-10-21T00:16:35.935Z,5.90
2018-10-21T00:19:08.281Z,5.90
2018-10-21T00:21:40.049Z,5.90
2018-10-21T00:24:11.824Z,5.90
2018-10-21T00:26:43.474Z,5.90
2018-10-21T00:29:15.306Z,5.90
2018-10-21T00:31:47.203Z,5.90
2018-10-21T00:34:18.831Z,5.90
2018-10-21T00:36:50.571Z,6.00
2018-10-21T00:39:22.364Z,6.00
2018-10-21T00:41:53.997Z,5.90
2018-10-21T00:44:25.982Z,5.90
2018-10-21T00:46:57.757Z,5.90
2018-10-21T00:49:29.397Z,5.90
2018-10-21T00:52:01.138Z,5.80
2018-10-21T00:54:32.790Z,5.70
2018-10-21T00:57:04.632Z,5.60
2018-10-21T00:59:36.448Z,5.60
2018-10-21T01:02:08.785Z,5.50
2018-10-21T01:04:40.683Z,5.50
2018-10-21T01:07:12.328Z,5.60
2018-10-21T01:09:44.089Z,5.70
2018-10-21T01:12:15.928Z,5.70
2018-10-21T01:14:47.911Z,5.70
2018-10-21T01:17:19.684Z,5.70
2018-10-21T01:19:51.325Z,5.90
2018-10-21T01:22:23.073Z,6.00
2018-10-21T01:24:54.833Z,6.00
2018-10-21T01:27:26.606Z,6.00
2018-10-21T01:29:58.342Z,6.10
2018-10-21T01:32:30.003Z,6.10
2018-10-21T01:35:01.663Z,6.10
2018-10-21T01:37:33.623Z,6.30
2018-10-21T01:43:14.002Z,6.60
2018-10-21T01:45:45.966Z,6.70
2018-10-21T01:48:18.647Z,6.70
2018-10-21T01:50:50.263Z,6.70
2018-10-21T01:53:22.482Z,6.60
2018-10-21T01:55:54.551Z,6.60
2018-10-21T01:58:26.432Z,6.60
2018-10-21T02:00:58.058Z,6.60
2018-10-21T02:03:29.825Z,6.70
2018-10-21T02:06:01.606Z,6.80
2018-10-21T02:08:33.220Z,6.80
2018-10-21T02:11:04.925Z,6.90
2018-10-21T02:13:36.661Z,7.00
2018-10-21T02:16:08.322Z,7.00
2018-10-21T02:18:40.170Z,6.90
2018-10-21T02:21:11.979Z,6.80
2018-10-21T02:23:43.702Z,6.80
2018-10-21T02:26:15.514Z,6.70
2018-10-21T02:28:47.205Z,6.60
2018-10-21T02:31:18.970Z,6.60
2018-10-21T02:33:50.852Z,6.60
2018-10-21T02:36:22.484Z,6.60
2018-10-21T02:38:54.283Z,6.70
2018-10-21T02:41:42.789Z,6.90
2018-10-21T02:44:20.591Z,7.00
2018-10-21T02:46:53.663Z,7.10
2018-10-21T02:49:25.292Z,7.20
2018-10-21T02:52:01.749Z,7.20
2018-10-21T02:54:33.598Z,7.30
2018-10-21T02:57:06.909Z,7.30
2018-10-21T02:59:38.923Z,7.40
2018-10-21T03:02:10.709Z,7.40
2018-10-21T03:04:42.452Z,7.40
2018-10-21T03:07:14.226Z,7.40
2018-10-21T03:09:46.065Z,7.40
2018-10-21T03:12:17.857Z,7.30
2018-10-21T03:14:49.502Z,7.30
2018-10-21T03:17:21.258Z,7.10
2018-10-21T03:19:52.910Z,7.10
2018-10-21T03:22:24.478Z,7.00
2018-10-21T03:24:56.240Z,7.00
2018-10-21T03:27:27.882Z,6.90
2018-10-21T03:29:59.655Z,7.00
2018-10-21T03:32:31.279Z,7.00
2018-10-21T03:35:03.035Z,7.00
2018-10-21T03:37:34.702Z,7.00
2018-10-21T03:40:06.758Z,7.00
2018-10-21T03:42:38.422Z,7.10
2018-10-21T03:45:10.368Z,7.20
2018-10-21T03:47:42.150Z,7.20
2018-10-21T03:50:14.009Z,7.10
2018-10-21T03:52:45.658Z,7.20
2018-10-21T03:55:17.533Z,7.30
2018-10-21T03:57:49.273Z,7.30
2018-10-21T04:00:21.201Z,7.30
2018-10-21T04:02:52.929Z,7.30
2018-10-21T04:05:24.549Z,7.20
2018-10-21T04:07:56.531Z,7.00
2018-10-21T04:10:28.191Z,6.90
2018-10-21T04:13:00.168Z,6.80
2018-10-21T04:15:32.141Z,6.60
2018-10-21T04:18:04.075Z,6.50
2018-10-21T04:20:35.712Z,6.50
2018-10-21T04:23:07.493Z,6.50
2018-10-21T04:25:40.193Z,6.60
2018-10-21T04:28:12.235Z,6.60
2018-10-21T04:30:44.482Z,6.70
2018-10-21T04:33:20.282Z,6.70
2018-10-21T04:35:51.940Z,6.60
2018-10-21T04:38:39.879Z,6.50
2018-10-21T04:41:11.517Z,6.50
2018-10-21T04:43:43.396Z,6.50
2018-10-21T04:46:15.085Z,6.50
2018-10-21T04:48:46.908Z,6.40
2018-10-21T04:51:18.635Z,6.40
2018-10-21T04:53:50.306Z,6.20
2018-10-21T04:56:22.053Z,6.10
2018-10-21T04:58:53.948Z,6.00
2018-10-21T05:01:25.378Z,5.90
2018-10-21T05:03:57.120Z,5.80
2018-10-21T05:06:28.919Z,5.70
2018-10-21T05:09:00.637Z,5.60
2018-10-21T05:11:32.318Z,5.50
2018-10-21T05:14:04.093Z,5.50
2018-10-21T05:16:35.742Z,5.40
2018-10-21T05:19:07.699Z,5.30
2018-10-21T05:21:39.438Z,5.30
2018-10-21T05:24:11.103Z,5.20
2018-10-21T05:26:42.986Z,5.20
2018-10-21T05:29:14.705Z,5.20
2018-10-21T05:31:46.376Z,5.20
2018-10-21T05:34:18.145Z,5.40
2018-10-21T05:36:49.984Z,5.50
2018-10-21T05:39:21.550Z,5.50
2018-10-21T05:41:53.509Z,5.50
2018-10-21T05:44:25.197Z,5.50
2018-10-21T05:46:57.062Z,5.60
2018-10-21T05:49:28.784Z,5.70
2018-10-21T05:52:00.720Z,5.80
2018-10-21T05:54:32.520Z,5.90
2018-10-21T05:57:04.194Z,5.90
2018-10-21T05:59:35.918Z,6.00
2018-10-21T06:02:07.834Z,6.10
2018-10-21T06:04:39.570Z,6.00
2018-10-21T06:07:11.338Z,6.10
2018-10-21T06:09:43.098Z,6.10
2018-10-21T06:12:14.750Z,6.10
2018-10-21T06:14:46.890Z,6.00
2018-10-21T06:17:26.976Z,5.90
2018-10-21T06:20:11.739Z,5.80
2018-10-21T06:22:44.916Z,5.90
2018-10-21T06:25:16.764Z,5.80
2018-10-21T06:27:48.473Z,5.80
2018-10-21T06:30:20.092Z,5.70
2018-10-21T06:32:51.925Z,5.70
2018-10-21T06:35:23.603Z,5.60
2018-10-21T06:37:55.384Z,5.60
2018-10-21T06:40:26.802Z,5.60
2018-10-21T06:42:58.699Z,5.70
2018-10-21T06:45:30.476Z,5.80
2018-10-21T06:48:02.277Z,6.00
2018-10-21T06:50:33.967Z,6.30
2018-10-21T06:53:05.757Z,6.60
2018-10-21T06:55:37.573Z,6.80
2018-10-21T06:58:09.442Z,6.90
2018-10-21T07:00:41.299Z,7.10
2018-10-21T07:03:13.147Z,7.10
2018-10-21T07:06:18.195Z,7.30
2018-10-21T07:08:50.991Z,7.50
2018-10-21T07:11:22.741Z,7.60
2018-10-21T07:13:54.518Z,7.80
2018-10-21T07:16:26.044Z,8.00
2018-10-21T07:18:57.906Z,8.30
2018-10-21T07:21:29.757Z,8.50
2018-10-21T07:24:01.450Z,8.70
2018-10-21T07:26:33.169Z,8.80
2018-10-21T07:29:05.049Z,8.90
2018-10-21T07:31:36.808Z,9.10
2018-10-21T07:34:08.636Z,9.30
2018-10-21T07:36:40.471Z,9.50
2018-10-21T07:39:12.721Z,9.60
2018-10-21T07:41:44.491Z,9.70
2018-10-21T07:44:16.227Z,9.90
2018-10-21T07:46:48.100Z,9.90
2018-10-21T07:49:19.763Z,9.90
2018-10-21T07:51:51.332Z,9.90
2018-10-21T07:54:23.129Z,9.90
2018-10-21T07:56:54.805Z,10.00
2018-10-21T07:59:26.554Z,10.20
2018-10-21T08:01:58.348Z,10.30
2018-10-21T08:04:30.086Z,10.50
2018-10-21T08:07:17.896Z,10.70
2018-10-21T08:09:49.474Z,10.90
2018-10-21T08:12:21.429Z,11.10
2018-10-21T08:14:53.225Z,11.20
2018-10-21T08:17:25.045Z,11.40
2018-10-21T08:19:56.738Z,11.60
2018-10-21T08:22:28.454Z,11.70
2018-10-21T08:25:00.042Z,11.90
2018-10-21T08:27:31.977Z,12.10
2018-10-21T08:30:03.978Z,12.20
2018-10-21T08:32:35.608Z,12.40
2018-10-21T08:35:07.782Z,12.50
2018-10-21T08:37:39.526Z,12.70
2018-10-21T08:40:11.223Z,13.00
2018-10-21T08:42:42.978Z,13.20
2018-10-21T08:45:15.214Z,13.40
2018-10-21T08:47:54.119Z,13.60
2018-10-21T08:50:26.522Z,13.90
2018-10-21T08:52:58.477Z,14.20
2018-10-21T08:55:30.242Z,14.40
2018-10-21T08:58:01.855Z,14.70
2018-10-21T09:00:33.679Z,14.90
2018-10-21T09:03:05.521Z,15.10
2018-10-21T09:05:37.530Z,15.30
2018-10-21T09:08:09.452Z,15.40
2018-10-21T09:10:41.430Z,15.60
2018-10-21T09:13:27.840Z,15.90
2018-10-21T09:16:14.553Z,16.10
2018-10-21T09:19:05.517Z,16.30
2018-10-21T09:21:39.673Z,16.50
2018-10-21T09:24:11.433Z,16.70
2018-10-21T09:26:43.171Z,16.90
2018-10-21T09:29:14.989Z,17.40
2018-10-21T09:31:46.910Z,18.30
2018-10-21T09:34:18.469Z,19.40
2018-10-21T09:36:50.015Z,20.40
2018-10-21T09:39:21.544Z,20.80
2018-10-21T09:41:53.210Z,20.40
2018-10-21T09:44:24.909Z,19.70
2018-10-21T09:46:56.757Z,19.50
2018-10-21T09:49:28.397Z,19.40
2018-10-21T09:52:00.349Z,19.40
2018-10-21T09:54:32.022Z,19.40
2018-10-21T09:57:03.951Z,19.60
2018-10-21T09:59:35.836Z,19.50
2018-10-21T10:02:12.446Z,19.30
2018-10-21T10:04:44.197Z,19.30
2018-10-21T10:07:16.195Z,19.10
2018-10-21T10:09:48.143Z,18.70
2018-10-21T10:12:19.660Z,18.40
2018-10-21T10:14:51.592Z,18.00
2018-10-21T10:17:23.453Z,17.70
2018-10-21T10:19:55.113Z,17.70
2018-10-21T10:22:26.972Z,17.50
2018-10-21T10:24:58.796Z,17.20
2018-10-21T10:27:30.625Z,17.50
2018-10-21T10:30:02.389Z,17.70
2018-10-21T10:32:34.140Z,17.50
2018-10-21T10:35:06.321Z,17.20
2018-10-21T10:37:37.960Z,16.80
2018-10-21T10:40:11.375Z,16.50
2018-10-21T10:42:43.482Z,16.10
2018-10-21T10:45:15.180Z,15.90
2018-10-21T10:47:46.850Z,15.60
2018-10-21T10:50:18.602Z,15.40
2018-10-21T10:52:50.296Z,15.30
2018-10-21T10:55:22.205Z,15.20
2018-10-21T10:57:53.882Z,15.70
2018-10-21T11:00:25.528Z,16.70
2018-10-21T11:02:57.404Z,16.70
2018-10-21T11:05:29.040Z,16.50
2018-10-21T11:08:00.712Z,16.80
2018-10-21T11:10:32.658Z,16.70
2018-10-21T11:13:04.469Z,16.50
2018-10-21T11:15:36.407Z,16.40
2018-10-21T11:18:08.362Z,17.50
2018-10-21T11:20:40.099Z,18.60
2018-10-21T11:23:11.864Z,19.60
2018-10-21T11:25:43.622Z,20.80
2018-10-21T11:28:15.243Z,21.80
2018-10-21T11:30:47.038Z,22.60
2018-10-21T11:33:18.921Z,23.70
2018-10-21T11:35:50.797Z,24.50
2018-10-21T11:38:22.617Z,25.30
2018-10-21T11:40:54.349Z,26.10
2018-10-21T11:43:25.966Z,26.40
2018-10-21T11:45:57.740Z,26.40
2018-10-21T11:48:29.382Z,26.60
2018-10-21T11:51:01.302Z,26.70
2018-10-21T11:53:33.098Z,25.70
2018-10-21T11:56:04.911Z,23.90
2018-10-21T11:58:36.573Z,22.30
2018-10-21T12:01:08.527Z,20.90
2018-10-21T12:03:40.318Z,19.70
2018-10-21T12:06:11.986Z,19.20
2018-10-21T12:08:43.740Z,19.60
2018-10-21T12:11:15.493Z,20.40
2018-10-21T12:13:47.266Z,20.90
2018-10-21T12:16:19.121Z,21.40
2018-10-21T12:18:50.779Z,21.40
2018-10-21T12:21:22.542Z,21.30
2018-10-21T12:23:54.265Z,21.60
2018-10-21T12:26:25.954Z,22.10
2018-10-21T12:28:57.647Z,22.60
2018-10-21T12:31:29.424Z,22.90
2018-10-21T12:34:01.159Z,23.30
2018-10-21T12:36:33.065Z,23.80
2018-10-21T12:39:05.955Z,24.30
2018-10-21T12:41:37.713Z,25.10
2018-10-21T12:44:09.473Z,25.70
2018-10-21T12:46:41.427Z,26.50
2018-10-21T12:49:13.229Z,27.20
2018-10-21T12:51:44.858Z,27.80
2018-10-21T12:54:16.727Z,27.20
2018-10-21T12:56:48.501Z,26.40
2018-10-21T12:59:20.215Z,26.70
2018-10-21T13:01:52.008Z,27.60
2018-10-21T13:04:24.082Z,28.40
2018-10-21T13:06:55.731Z,29.20
2018-10-21T13:09:27.389Z,29.50
2018-10-21T13:11:59.221Z,29.20
2018-10-21T13:14:30.903Z,29.20
2018-10-21T13:17:02.582Z,29.50
2018-10-21T13:19:34.436Z,29.70
2018-10-21T13:22:06.136Z,29.40
2018-10-21T13:24:37.945Z,29.30
2018-10-21T13:27:09.605Z,29.20
2018-10-21T13:29:41.254Z,29.50
2018-10-21T13:32:13.228Z,29.90
2018-10-21T13:34:45.046Z,30.20
2018-10-21T13:37:16.798Z,30.20
2018-10-21T13:39:48.574Z,30.40
2018-10-21T13:42:20.369Z,30.40
2018-10-21T13:44:52.103Z,30.20
2018-10-21T13:47:23.854Z,30.10
2018-10-21T13:49:55.644Z,29.90
2018-10-21T13:52:27.318Z,29.70
2018-10-21T13:54:59.380Z,29.10
2018-10-21T13:57:31.188Z,28.10
2018-10-21T14:00:02.903Z,27.40
2018-10-21T14:02:34.666Z,26.50
2018-10-21T14:05:07.120Z,25.80
2018-10-21T14:07:39.055Z,25.10
2018-10-21T14:10:10.811Z,24.50
2018-10-21T14:12:42.595Z,23.50
2018-10-21T14:15:14.547Z,22.50
2018-10-21T14:17:46.500Z,21.90
2018-10-21T14:20:18.285Z,21.80
2018-10-21T14:22:50.034Z,21.70
2018-10-21T14:25:21.906Z,21.50
2018-10-21T14:27:53.635Z,21.10
2018-10-21T14:30:25.476Z,20.70
2018-10-21T14:32:57.310Z,20.30
2018-10-21T14:35:29.254Z,19.80
2018-10-21T14:38:01.019Z,19.40
2018-10-21T14:40:32.943Z,19.00
2018-10-21T14:43:04.733Z,18.70
2018-10-21T14:45:36.547Z,18.50
2018-10-21T14:48:08.357Z,18.20
2018-10-21T14:50:40.081Z,17.90
2018-10-21T14:53:11.753Z,17.70
2018-10-21T14:55:44.261Z,17.50
2018-10-21T14:58:16.106Z,17.20
2018-10-21T15:00:47.844Z,17.10
2018-10-21T15:03:19.488Z,16.90
2018-10-21T15:05:51.241Z,16.70
2018-10-21T15:08:23.141Z,16.60
2018-10-21T15:10:54.886Z,16.40
2018-10-21T15:13:26.733Z,16.30
2018-10-21T15:15:58.555Z,16.20
2018-10-21T15:18:31.403Z,16.10
2018-10-21T15:21:03.369Z,16.00
2018-10-21T15:23:34.998Z,15.80
2018-10-21T15:26:06.760Z,15.70
2018-10-21T15:28:38.507Z,15.50
2018-10-21T15:31:10.164Z,15.40
2018-10-21T15:33:41.836Z,15.30
2018-10-21T15:36:13.600Z,15.10
2018-10-21T15:38:45.242Z,15.00
2018-10-21T15:41:17.210Z,14.80
2018-10-21T15:43:49.065Z,14.70
2018-10-21T15:46:20.667Z,14.50
2018-10-21T15:48:52.356Z,14.40
2018-10-21T15:51:24.270Z,14.30
2018-10-21T15:53:56.013Z,14.20
2018-10-21T15:56:27.769Z,14.00
2018-10-21T15:58:59.516Z,14.00
2018-10-21T16:01:31.408Z,13.90
2018-10-21T16:04:03.186Z,13.80
2018-10-21T16:06:37.180Z,13.80
2018-10-21T16:09:14.006Z,13.80
2018-10-21T16:11:45.701Z,13.70
2018-10-21T16:14:17.347Z,13.70
2018-10-21T16:16:49.030Z,13.60
2018-10-21T16:19:20.957Z,13.50
2018-10-21T16:21:52.886Z,13.50
2018-10-21T16:24:24.587Z,13.40
2018-10-21T16:26:56.339Z,13.30
2018-10-21T16:29:28.207Z,13.20
2018-10-21T16:31:59.877Z,13.10
2018-10-21T16:34:31.608Z,12.90
2018-10-21T16:37:03.272Z,12.90
2018-10-21T16:39:35.045Z,12.80
2018-10-21T16:42:06.815Z,12.70
2018-10-21T16:44:38.582Z,12.60
2018-10-21T16:47:10.224Z,12.40
2018-10-21T16:49:41.997Z,12.20
2018-10-21T16:52:13.756Z,12.00
2018-10-21T16:54:45.633Z,11.80
2018-10-21T16:57:17.373Z,11.60
2018-10-21T16:59:49.207Z,11.40
2018-10-21T17:02:20.778Z,11.30
2018-10-21T17:04:52.629Z,11.20
2018-10-21T17:07:24.425Z,11.10
2018-10-21T17:09:56.449Z,11.00
2018-10-21T17:12:28.027Z,10.90
2018-10-21T17:14:59.759Z,10.90
2018-10-21T17:17:31.419Z,10.80
2018-10-21T17:20:03.182Z,10.70
2018-10-21T17:22:34.851Z,10.60
2018-10-21T17:25:06.953Z,10.60
2018-10-21T17:27:38.667Z,10.50
2018-10-21T17:30:15.936Z,10.50
2018-10-21T17:32:47.956Z,10.40
2018-10-21T17:35:19.712Z,10.20
2018-10-21T17:37:51.436Z,10.10
2018-10-21T17:40:23.196Z,9.90
2018-10-21T17:42:55.079Z,9.80
2018-10-21T17:45:26.606Z,9.70
2018-10-21T17:47:58.361Z,9.50
2018-10-21T17:50:30.038Z,9.40
2018-10-21T17:53:01.790Z,9.30
2018-10-21T17:55:33.642Z,9.30
2018-10-21T17:58:05.653Z,9.20
2018-10-21T18:00:37.381Z,9.20
2018-10-21T18:03:09.125Z,9.10
2018-10-21T18:05:40.905Z,9.10
2018-10-21T18:08:12.552Z,9.20
2018-10-21T18:10:44.322Z,9.10
2018-10-21T18:13:16.089Z,9.10
2018-10-21T18:15:48.015Z,9.00
2018-10-21T18:18:19.773Z,9.00
2018-10-21T18:20:51.528Z,9.00
2018-10-21T18:23:23.403Z,8.90
2018-10-21T18:25:55.284Z,8.80
2018-10-21T18:28:27.014Z,8.70
2018-10-21T18:30:59.354Z,8.60
2018-10-21T18:33:31.056Z,8.50
2018-10-21T18:36:03.005Z,8.50
2018-10-21T18:38:34.661Z,8.40
2018-10-21T18:41:06.708Z,8.30
2018-10-21T18:43:38.286Z,8.20
2018-10-21T18:46:10.371Z,8.10
2018-10-21T18:48:42.006Z,8.10
2018-10-21T18:51:13.885Z,8.00
2018-10-21T18:53:45.619Z,8.10
2018-10-21T18:56:17.405Z,8.10
2018-10-21T18:58:49.364Z,8.20
2018-10-21T19:01:21.077Z,8.30
2018-10-21T19:03:53.002Z,8.20
2018-10-21T19:06:24.624Z,8.10
2018-10-21T19:08:56.287Z,8.00
2018-10-21T19:11:27.857Z,7.90
2018-10-21T19:13:59.513Z,7.80
2018-10-21T19:16:31.262Z,7.60
2018-10-21T19:19:02.942Z,7.70
2018-10-21T19:21:34.684Z,7.60
2018-10-21T19:24:06.554Z,7.60
2018-10-21T19:26:39.241Z,7.70
2018-10-21T19:29:10.969Z,7.60
2018-10-21T19:31:42.636Z,7.50
2018-10-21T19:34:14.300Z,7.40
2018-10-21T19:36:46.152Z,7.30
2018-10-21T19:39:17.938Z,7.10
2018-10-21T19:41:49.757Z,7.00
2018-10-21T19:44:21.518Z,7.00
2018-10-21T19:46:53.198Z,7.00
2018-10-21T19:49:25.042Z,7.00
2018-10-21T19:51:56.877Z,7.10
2018-10-21T19:54:28.460Z,7.10
2018-10-21T19:57:00.326Z,7.20
2018-10-21T19:59:31.985Z,7.20
2018-10-21T20:02:03.862Z,7.20
2018-10-21T20:04:35.830Z,7.20
2018-10-21T20:07:07.589Z,7.20
2018-10-21T20:09:39.235Z,7.10
2018-10-21T20:12:10.995Z,7.10
2018-10-21T20:14:42.762Z,7.10
2018-10-21T20:17:14.505Z,7.10
2018-10-21T20:19:46.280Z,7.10
2018-10-21T20:22:18.005Z,7.10
2018-10-21T20:24:49.768Z,7.10
2018-10-21T20:27:21.561Z,7.20
2018-10-21T20:29:53.213Z,7.10
2018-10-21T20:32:24.964Z,7.10
2018-10-21T20:34:56.697Z,7.10
2018-10-21T20:37:28.482Z,7.00
2018-10-21T20:40:00.287Z,6.90
2018-10-21T20:42:32.216Z,6.70
2018-10-21T20:45:03.977Z,6.60
2018-10-21T20:47:35.699Z,6.60
2018-10-21T20:50:07.965Z,6.60
2018-10-21T20:52:39.788Z,6.50
2018-10-21T20:55:11.715Z,6.30
2018-10-21T20:57:43.522Z,6.20
2018-10-21T21:00:15.345Z,6.10
2018-10-21T21:02:47.124Z,6.00
2018-10-21T21:05:19.804Z,5.90
2018-10-21T21:07:51.621Z,6.00
2018-10-21T21:10:23.377Z,6.00
2018-10-21T21:13:02.118Z,6.00
2018-10-21T21:15:33.967Z,6.00
2018-10-21T21:18:05.831Z,6.10
2018-10-21T21:20:37.542Z,6.10
2018-10-21T21:23:09.159Z,6.10
2018-10-21T21:25:40.916Z,6.20
2018-10-21T21:28:12.565Z,6.30
2018-10-21T21:30:44.430Z,6.30
2018-10-21T21:33:16.075Z,6.30
2018-10-21T21:35:47.822Z,6.30
2018-10-21T21:38:19.583Z,6.30
2018-10-21T21:40:51.245Z,6.30
2018-10-21T21:43:23.111Z,6.30
2018-10-21T21:45:54.961Z,6.30
2018-10-21T21:48:26.809Z,6.30
2018-10-21T21:50:58.611Z,6.20
2018-10-21T21:53:30.348Z,6.20
2018-10-21T21:56:02.121Z,6.20
2018-10-21T21:58:33.860Z,6.10
2018-10-21T22:01:05.652Z,6.10
2018-10-21T22:03:37.500Z,6.00
2018-10-21T22:06:09.318Z,6.00
2018-10-21T22:08:40.994Z,6.00
2018-10-21T22:11:12.956Z,6.00
2018-10-21T22:13:44.616Z,5.90
2018-10-21T22:16:16.622Z,6.00
2018-10-21T22:18:48.447Z,6.10
2018-10-21T22:21:20.301Z,6.10
2018-10-21T22:23:51.991Z,6.30
2018-10-21T22:26:23.749Z,6.20
2018-10-21T22:28:55.390Z,6.20
2018-10-21T22:31:27.128Z,6.00
2018-10-21T22:33:58.981Z,5.90
2018-10-21T22:36:30.762Z,5.80
2018-10-21T22:39:02.537Z,5.80
2018-10-21T22:41:34.392Z,5.70
2018-10-21T22:44:06.357Z,5.70
2018-10-21T22:46:38.310Z,5.60
2018-10-21T22:49:09.978Z,5.60
2018-10-21T22:51:41.756Z,5.50
2018-10-21T22:54:13.585Z,5.50
2018-10-21T22:56:45.262Z,5.60
2018-10-21T22:59:16.923Z,5.60
2018-10-21T23:01:48.868Z,5.60
2018-10-21T23:04:20.835Z,5.50
2018-10-21T23:06:52.491Z,5.40
2018-10-21T23:09:24.153Z,5.30
2018-10-21T23:11:55.901Z,5.30
2018-10-21T23:14:27.849Z,5.50
2018-10-21T23:16:59.753Z,5.50
2018-10-21T23:19:44.462Z,5.60
2018-10-21T23:22:16.310Z,5.60
2018-10-21T23:24:48.003Z,5.70
2018-10-21T23:27:19.758Z,5.50
2018-10-21T23:29:51.512Z,5.30
2018-10-21T23:32:23.270Z,5.20
2018-10-21T23:34:55.033Z,5.10
2018-10-21T23:37:26.692Z,5.00
2018-10-21T23:39:58.555Z,5.10
2018-10-21T23:42:30.311Z,5.00
2018-10-21T23:45:01.965Z,4.90
2018-10-21T23:47:33.841Z,4.90
2018-10-21T23:50:05.910Z,5.10
2018-10-21T23:52:37.689Z,5.20
2018-10-21T23:55:09.434Z,5.30
2018-10-21T23:57:41.209Z,5.40
